sensor_id;sensor_type;location;lat;lon;timestamp;P1;durP1;ratioP1;P2;durP2;ratioP2
51913;SDS011;37940;53.002;6.930;2023-04-03T00:00:02;662.95;;;315.42;;
51913;SDS011;37940;53.002;6.930;2023-04-03T00:02:30;659.13;;;312.80;;
51913;SDS011;37940;53.002;6.930;2023-04-03T00:04:55;662.35;;;314.42;;
51913;SDS011;37940;53.002;6.930;2023-04-03T00:07:21;662.85;;;315.45;;
51913;SDS011;37940;53.002;6.930;2023-04-03T00:09:47;660.08;;;313.27;;
51913;SDS011;37940;53.002;6.930;2023-04-03T00:12:12;653.05;;;310.77;;
51913;SDS011;37940;53.002;6.930;2023-04-03T00:14:38;650.00;;;307.33;;
51913;SDS011;37940;53.002;6.930;2023-04-03T00:17:04;658.35;;;311.73;;
51913;SDS011;37940;53.002;6.930;2023-04-03T00:19:30;654.83;;;311.40;;
51913;SDS011;37940;53.002;6.930;2023-04-03T00:21:56;653.42;;;310.35;;
51913;SDS011;37940;53.002;6.930;2023-04-03T00:24:21;649.38;;;307.45;;
51913;SDS011;37940;53.002;6.930;2023-04-03T00:26:47;651.15;;;310.02;;
51913;SDS011;37940;53.002;6.930;2023-04-03T00:29:13;648.25;;;309.00;;
51913;SDS011;37940;53.002;6.930;2023-04-03T00:31:38;644.15;;;303.70;;
51913;SDS011;37940;53.002;6.930;2023-04-03T00:34:05;645.78;;;305.38;;
51913;SDS011;37940;53.002;6.930;2023-04-03T00:36:31;639.83;;;301.40;;
51913;SDS011;37940;53.002;6.930;2023-04-03T00:38:56;636.75;;;300.60;;
51913;SDS011;37940;53.002;6.930;2023-04-03T00:41:22;637.50;;;301.40;;
51913;SDS011;37940;53.002;6.930;2023-04-03T00:43:48;634.15;;;299.20;;
51913;SDS011;37940;53.002;6.930;2023-04-03T00:46:13;631.85;;;298.00;;
51913;SDS011;37940;53.002;6.930;2023-04-03T00:48:40;615.95;;;286.15;;
51913;SDS011;37940;53.002;6.930;2023-04-03T00:51:09;613.00;;;283.65;;
51913;SDS011;37940;53.002;6.930;2023-04-03T00:53:40;611.97;;;281.95;;
51913;SDS011;37940;53.002;6.930;2023-04-03T00:56:12;623.90;;;289.42;;
51913;SDS011;37940;53.002;6.930;2023-04-03T00:58:47;621.85;;;290.80;;
51913;SDS011;37940;53.002;6.930;2023-04-03T01:01:18;626.80;;;290.92;;
51913;SDS011;37940;53.002;6.930;2023-04-03T01:03:49;650.75;;;306.38;;
51913;SDS011;37940;53.002;6.930;2023-04-03T01:06:16;634.58;;;291.02;;
51913;SDS011;37940;53.002;6.930;2023-04-03T01:08:45;614.05;;;277.58;;
51913;SDS011;37940;53.002;6.930;2023-04-03T01:11:14;610.03;;;273.80;;
51913;SDS011;37940;53.002;6.930;2023-04-03T01:13:40;617.25;;;280.77;;
51913;SDS011;37940;53.002;6.930;2023-04-03T01:16:06;624.08;;;284.90;;
51913;SDS011;37940;53.002;6.930;2023-04-03T01:18:32;622.58;;;285.92;;
51913;SDS011;37940;53.002;6.930;2023-04-03T01:24:08;620.15;;;281.40;;
51913;SDS011;37940;53.002;6.930;2023-04-03T01:26:46;618.05;;;277.52;;
51913;SDS011;37940;53.002;6.930;2023-04-03T01:29:13;631.03;;;289.65;;
51913;SDS011;37940;53.002;6.930;2023-04-03T01:34:34;633.03;;;291.60;;
51913;SDS011;37940;53.002;6.930;2023-04-03T01:37:00;634.00;;;292.20;;
51913;SDS011;37940;53.002;6.930;2023-04-03T01:39:26;631.80;;;290.80;;
51913;SDS011;37940;53.002;6.930;2023-04-03T01:41:52;628.25;;;289.85;;
51913;SDS011;37940;53.002;6.930;2023-04-03T01:44:18;622.38;;;285.65;;
51913;SDS011;37940;53.002;6.930;2023-04-03T01:46:43;636.67;;;295.52;;
51913;SDS011;37940;53.002;6.930;2023-04-03T01:49:09;638.38;;;295.70;;
51913;SDS011;37940;53.002;6.930;2023-04-03T01:51:35;636.50;;;295.23;;
51913;SDS011;37940;53.002;6.930;2023-04-03T01:54:01;631.85;;;292.48;;
51913;SDS011;37940;53.002;6.930;2023-04-03T01:56:27;629.70;;;291.33;;
51913;SDS011;37940;53.002;6.930;2023-04-03T01:58:52;630.13;;;291.40;;
51913;SDS011;37940;53.002;6.930;2023-04-03T02:01:18;641.22;;;300.85;;
51913;SDS011;37940;53.002;6.930;2023-04-03T02:03:44;623.72;;;287.48;;
51913;SDS011;37940;53.002;6.930;2023-04-03T02:06:10;611.38;;;274.33;;
51913;SDS011;37940;53.002;6.930;2023-04-03T02:08:35;617.95;;;282.13;;
51913;SDS011;37940;53.002;6.930;2023-04-03T02:11:01;621.30;;;284.60;;
51913;SDS011;37940;53.002;6.930;2023-04-03T02:13:27;622.55;;;288.23;;
51913;SDS011;37940;53.002;6.930;2023-04-03T02:15:53;628.58;;;291.25;;
51913;SDS011;37940;53.002;6.930;2023-04-03T02:18:18;627.58;;;292.38;;
51913;SDS011;37940;53.002;6.930;2023-04-03T02:20:44;637.80;;;296.70;;
51913;SDS011;37940;53.002;6.930;2023-04-03T02:23:12;637.60;;;295.27;;
51913;SDS011;37940;53.002;6.930;2023-04-03T02:25:37;635.05;;;294.60;;
51913;SDS011;37940;53.002;6.930;2023-04-03T02:28:03;630.50;;;293.33;;
51913;SDS011;37940;53.002;6.930;2023-04-03T02:30:29;639.22;;;296.75;;
51913;SDS011;37940;53.002;6.930;2023-04-03T02:32:55;623.83;;;288.85;;
51913;SDS011;37940;53.002;6.930;2023-04-03T02:35:21;608.22;;;279.77;;
51913;SDS011;37940;53.002;6.930;2023-04-03T02:37:47;601.22;;;271.92;;
51913;SDS011;37940;53.002;6.930;2023-04-03T02:40:12;602.13;;;271.60;;
51913;SDS011;37940;53.002;6.930;2023-04-03T02:42:38;579.50;;;249.60;;
51913;SDS011;37940;53.002;6.930;2023-04-03T02:45:04;577.47;;;246.77;;
51913;SDS011;37940;53.002;6.930;2023-04-03T02:47:30;591.72;;;262.73;;
51913;SDS011;37940;53.002;6.930;2023-04-03T02:49:56;594.25;;;265.67;;
51913;SDS011;37940;53.002;6.930;2023-04-03T02:52:22;585.05;;;256.65;;
51913;SDS011;37940;53.002;6.930;2023-04-03T02:54:47;583.33;;;255.27;;
51913;SDS011;37940;53.002;6.930;2023-04-03T02:57:13;590.78;;;265.27;;
51913;SDS011;37940;53.002;6.930;2023-04-03T02:59:39;591.83;;;265.17;;
51913;SDS011;37940;53.002;6.930;2023-04-03T03:02:06;581.60;;;256.17;;
51913;SDS011;37940;53.002;6.930;2023-04-03T03:04:32;607.70;;;278.75;;
51913;SDS011;37940;53.002;6.930;2023-04-03T03:06:58;610.88;;;284.67;;
51913;SDS011;37940;53.002;6.930;2023-04-03T03:09:24;606.75;;;280.73;;
51913;SDS011;37940;53.002;6.930;2023-04-03T03:11:51;594.58;;;270.70;;
51913;SDS011;37940;53.002;6.930;2023-04-03T03:14:17;577.25;;;251.85;;
51913;SDS011;37940;53.002;6.930;2023-04-03T03:16:43;582.45;;;256.00;;
51913;SDS011;37940;53.002;6.930;2023-04-03T03:19:09;598.15;;;272.08;;
51913;SDS011;37940;53.002;6.930;2023-04-03T03:21:35;596.05;;;270.63;;
51913;SDS011;37940;53.002;6.930;2023-04-03T03:24:01;596.58;;;273.38;;
51913;SDS011;37940;53.002;6.930;2023-04-03T03:26:27;602.40;;;280.83;;
51913;SDS011;37940;53.002;6.930;2023-04-03T03:28:52;588.92;;;266.40;;
51913;SDS011;37940;53.002;6.930;2023-04-03T03:31:18;591.42;;;268.63;;
51913;SDS011;37940;53.002;6.930;2023-04-03T03:33:44;583.25;;;260.50;;
51913;SDS011;37940;53.002;6.930;2023-04-03T03:36:10;599.58;;;281.67;;
51913;SDS011;37940;53.002;6.930;2023-04-03T03:38:36;586.35;;;267.73;;
51913;SDS011;37940;53.002;6.930;2023-04-03T03:41:02;582.22;;;261.92;;
51913;SDS011;37940;53.002;6.930;2023-04-03T03:43:28;598.63;;;279.35;;
51913;SDS011;37940;53.002;6.930;2023-04-03T03:45:55;594.45;;;276.20;;
51913;SDS011;37940;53.002;6.930;2023-04-03T03:48:21;594.95;;;275.95;;
51913;SDS011;37940;53.002;6.930;2023-04-03T03:50:48;587.47;;;269.55;;
51913;SDS011;37940;53.002;6.930;2023-04-03T03:53:14;577.58;;;255.73;;
51913;SDS011;37940;53.002;6.930;2023-04-03T03:55:40;581.13;;;263.20;;
51913;SDS011;37940;53.002;6.930;2023-04-03T03:58:06;583.90;;;266.08;;
51913;SDS011;37940;53.002;6.930;2023-04-03T04:00:32;586.70;;;268.70;;
51913;SDS011;37940;53.002;6.930;2023-04-03T04:02:57;586.88;;;269.92;;
51913;SDS011;37940;53.002;6.930;2023-04-03T04:05:23;582.85;;;265.30;;
51913;SDS011;37940;53.002;6.930;2023-04-03T04:07:49;579.53;;;261.88;;
51913;SDS011;37940;53.002;6.930;2023-04-03T04:10:15;579.00;;;258.35;;
51913;SDS011;37940;53.002;6.930;2023-04-03T04:12:41;576.92;;;256.33;;
51913;SDS011;37940;53.002;6.930;2023-04-03T04:15:07;576.58;;;256.33;;
51913;SDS011;37940;53.002;6.930;2023-04-03T04:17:33;576.08;;;256.55;;
51913;SDS011;37940;53.002;6.930;2023-04-03T04:20:00;577.53;;;257.08;;
51913;SDS011;37940;53.002;6.930;2023-04-03T04:22:27;576.53;;;257.50;;
51913;SDS011;37940;53.002;6.930;2023-04-03T04:24:53;574.58;;;254.00;;
51913;SDS011;37940;53.002;6.930;2023-04-03T04:27:19;574.70;;;254.07;;
51913;SDS011;37940;53.002;6.930;2023-04-03T04:29:44;575.50;;;255.13;;
51913;SDS011;37940;53.002;6.930;2023-04-03T04:32:10;574.97;;;255.43;;
51913;SDS011;37940;53.002;6.930;2023-04-03T04:34:36;574.00;;;251.55;;
51913;SDS011;37940;53.002;6.930;2023-04-03T04:37:02;568.40;;;245.60;;
51913;SDS011;37940;53.002;6.930;2023-04-03T04:39:27;567.15;;;242.85;;
51913;SDS011;37940;53.002;6.930;2023-04-03T04:41:53;561.60;;;233.23;;
51913;SDS011;37940;53.002;6.930;2023-04-03T04:44:19;553.67;;;214.43;;
51913;SDS011;37940;53.002;6.930;2023-04-03T04:46:45;550.25;;;207.07;;
51913;SDS011;37940;53.002;6.930;2023-04-03T04:49:11;549.42;;;203.70;;
51913;SDS011;37940;53.002;6.930;2023-04-03T04:51:36;555.00;;;217.18;;
51913;SDS011;37940;53.002;6.930;2023-04-03T04:54:02;561.08;;;226.93;;
51913;SDS011;37940;53.002;6.930;2023-04-03T04:56:28;570.90;;;248.20;;
51913;SDS011;37940;53.002;6.930;2023-04-03T04:58:54;568.85;;;245.48;;
51913;SDS011;37940;53.002;6.930;2023-04-03T05:01:20;566.78;;;243.32;;
51913;SDS011;37940;53.002;6.930;2023-04-03T05:03:46;566.58;;;240.93;;
51913;SDS011;37940;53.002;6.930;2023-04-03T05:06:13;567.22;;;242.95;;
51913;SDS011;37940;53.002;6.930;2023-04-03T05:08:39;565.30;;;239.73;;
51913;SDS011;37940;53.002;6.930;2023-04-03T05:11:05;560.05;;;230.32;;
51913;SDS011;37940;53.002;6.930;2023-04-03T05:13:30;560.65;;;230.73;;
51913;SDS011;37940;53.002;6.930;2023-04-03T05:15:56;565.85;;;237.57;;
51913;SDS011;37940;53.002;6.930;2023-04-03T05:18:22;572.92;;;250.43;;
51913;SDS011;37940;53.002;6.930;2023-04-03T05:20:48;575.20;;;255.25;;
51913;SDS011;37940;53.002;6.930;2023-04-03T05:23:15;574.63;;;253.48;;
51913;SDS011;37940;53.002;6.930;2023-04-03T05:25:41;559.88;;;225.10;;
51913;SDS011;37940;53.002;6.930;2023-04-03T05:28:08;572.85;;;250.95;;
51913;SDS011;37940;53.002;6.930;2023-04-03T05:30:35;571.25;;;248.63;;
51913;SDS011;37940;53.002;6.930;2023-04-03T05:33:00;571.63;;;249.63;;
51913;SDS011;37940;53.002;6.930;2023-04-03T05:35:27;572.25;;;246.43;;
51913;SDS011;37940;53.002;6.930;2023-04-03T05:37:52;573.75;;;252.57;;
51913;SDS011;37940;53.002;6.930;2023-04-03T05:40:18;580.13;;;258.17;;
51913;SDS011;37940;53.002;6.930;2023-04-03T05:42:44;586.53;;;263.10;;
51913;SDS011;37940;53.002;6.930;2023-04-03T05:45:09;585.47;;;251.30;;
51913;SDS011;37940;53.002;6.930;2023-04-03T05:47:35;570.45;;;217.65;;
51913;SDS011;37940;53.002;6.930;2023-04-03T05:50:01;543.75;;;175.15;;
51913;SDS011;37940;53.002;6.930;2023-04-03T05:52:46;342.50;;;154.57;;
51913;SDS011;37940;53.002;6.930;2023-04-03T05:55:14;528.55;;;181.88;;
51913;SDS011;37940;53.002;6.930;2023-04-03T05:57:40;537.83;;;183.00;;
51913;SDS011;37940;53.002;6.930;2023-04-03T06:00:07;367.67;;;134.93;;
51913;SDS011;37940;53.002;6.930;2023-04-03T06:02:37;536.35;;;183.27;;
51913;SDS011;37940;53.002;6.930;2023-04-03T06:05:03;554.78;;;181.32;;
51913;SDS011;37940;53.002;6.930;2023-04-03T06:07:29;569.17;;;182.68;;
51913;SDS011;37940;53.002;6.930;2023-04-03T06:09:56;599.08;;;207.75;;
51913;SDS011;37940;53.002;6.930;2023-04-03T06:12:22;577.40;;;183.43;;
51913;SDS011;37940;53.002;6.930;2023-04-03T06:14:48;567.22;;;180.13;;
51913;SDS011;37940;53.002;6.930;2023-04-03T06:17:14;575.20;;;184.68;;
51913;SDS011;37940;53.002;6.930;2023-04-03T06:19:41;575.38;;;182.80;;
51913;SDS011;37940;53.002;6.930;2023-04-03T06:22:07;569.28;;;180.35;;
51913;SDS011;37940;53.002;6.930;2023-04-03T06:24:33;583.47;;;184.82;;
51913;SDS011;37940;53.002;6.930;2023-04-03T06:26:58;581.92;;;184.48;;
51913;SDS011;37940;53.002;6.930;2023-04-03T06:29:24;591.55;;;189.75;;
51913;SDS011;37940;53.002;6.930;2023-04-03T06:31:50;577.90;;;181.75;;
51913;SDS011;37940;53.002;6.930;2023-04-03T06:34:17;574.85;;;183.98;;
51913;SDS011;37940;53.002;6.930;2023-04-03T06:36:43;584.17;;;188.23;;
51913;SDS011;37940;53.002;6.930;2023-04-03T06:39:14;584.25;;;184.55;;
51913;SDS011;37940;53.002;6.930;2023-04-03T06:41:41;596.15;;;193.00;;
51913;SDS011;37940;53.002;6.930;2023-04-03T06:44:08;577.72;;;182.77;;
51913;SDS011;37940;53.002;6.930;2023-04-03T06:46:36;566.50;;;183.63;;
51913;SDS011;37940;53.002;6.930;2023-04-03T06:49:03;514.38;;;179.68;;
51913;SDS011;37940;53.002;6.930;2023-04-03T06:51:29;538.05;;;183.73;;
51913;SDS011;37940;53.002;6.930;2023-04-03T06:53:57;588.75;;;191.95;;
51913;SDS011;37940;53.002;6.930;2023-04-03T06:56:24;565.47;;;188.02;;
51913;SDS011;37940;53.002;6.930;2023-04-03T06:58:51;595.13;;;194.13;;
51913;SDS011;37940;53.002;6.930;2023-04-03T07:01:20;605.95;;;199.18;;
51913;SDS011;37940;53.002;6.930;2023-04-03T07:03:46;604.63;;;197.18;;
51913;SDS011;37940;53.002;6.930;2023-04-03T07:06:13;608.95;;;201.68;;
51913;SDS011;37940;53.002;6.930;2023-04-03T07:08:41;606.35;;;200.88;;
51913;SDS011;37940;53.002;6.930;2023-04-03T07:11:08;620.78;;;227.40;;
51913;SDS011;37940;53.002;6.930;2023-04-03T07:13:35;613.15;;;214.95;;
51913;SDS011;37940;53.002;6.930;2023-04-03T07:16:01;603.95;;;207.55;;
51913;SDS011;37940;53.002;6.930;2023-04-03T07:18:29;573.33;;;180.02;;
51913;SDS011;37940;53.002;6.930;2023-04-03T07:20:55;566.97;;;178.43;;
51913;SDS011;37940;53.002;6.930;2023-04-03T07:23:21;558.85;;;175.38;;
51913;SDS011;37940;53.002;6.930;2023-04-03T07:25:47;574.00;;;184.45;;
51913;SDS011;37940;53.002;6.930;2023-04-03T07:28:14;578.85;;;187.43;;
51913;SDS011;37940;53.002;6.930;2023-04-03T07:30:44;576.92;;;187.18;;
51913;SDS011;37940;53.002;6.930;2023-04-03T07:33:15;580.80;;;192.07;;
51913;SDS011;37940;53.002;6.930;2023-04-03T07:35:42;581.08;;;192.95;;
51913;SDS011;37940;53.002;6.930;2023-04-03T07:38:09;566.92;;;178.07;;
51913;SDS011;37940;53.002;6.930;2023-04-03T07:40:35;561.65;;;176.57;;
51913;SDS011;37940;53.002;6.930;2023-04-03T07:43:02;558.33;;;178.13;;
51913;SDS011;37940;53.002;6.930;2023-04-03T07:45:28;563.50;;;178.38;;
51913;SDS011;37940;53.002;6.930;2023-04-03T07:47:54;565.72;;;180.95;;
51913;SDS011;37940;53.002;6.930;2023-04-03T07:50:21;566.08;;;185.85;;
51913;SDS011;37940;53.002;6.930;2023-04-03T07:52:48;563.55;;;179.07;;
51913;SDS011;37940;53.002;6.930;2023-04-03T07:55:14;557.05;;;179.80;;
51913;SDS011;37940;53.002;6.930;2023-04-03T07:57:40;556.47;;;177.65;;
51913;SDS011;37940;53.002;6.930;2023-04-03T08:00:06;559.85;;;179.45;;
51913;SDS011;37940;53.002;6.930;2023-04-03T08:02:32;560.65;;;179.38;;
51913;SDS011;37940;53.002;6.930;2023-04-03T08:04:58;559.85;;;179.48;;
51913;SDS011;37940;53.002;6.930;2023-04-03T08:07:24;559.13;;;179.05;;
51913;SDS011;37940;53.002;6.930;2023-04-03T08:09:50;559.45;;;179.93;;
51913;SDS011;37940;53.002;6.930;2023-04-03T08:12:16;556.70;;;179.98;;
51913;SDS011;37940;53.002;6.930;2023-04-03T08:14:42;559.75;;;178.52;;
51913;SDS011;37940;53.002;6.930;2023-04-03T08:17:08;556.15;;;177.98;;
51913;SDS011;37940;53.002;6.930;2023-04-03T08:19:37;560.25;;;178.98;;
51913;SDS011;37940;53.002;6.930;2023-04-03T08:22:04;559.65;;;180.38;;
51913;SDS011;37940;53.002;6.930;2023-04-03T08:24:33;556.97;;;180.65;;
51913;SDS011;37940;53.002;6.930;2023-04-03T08:26:59;562.30;;;179.35;;
51913;SDS011;37940;53.002;6.930;2023-04-03T08:29:25;563.47;;;181.13;;
51913;SDS011;37940;53.002;6.930;2023-04-03T08:31:51;557.85;;;178.05;;
51913;SDS011;37940;53.002;6.930;2023-04-03T08:34:17;569.55;;;187.35;;
51913;SDS011;37940;53.002;6.930;2023-04-03T08:36:44;570.50;;;186.23;;
51913;SDS011;37940;53.002;6.930;2023-04-03T08:39:11;571.85;;;187.93;;
51913;SDS011;37940;53.002;6.930;2023-04-03T08:41:38;570.58;;;186.20;;
51913;SDS011;37940;53.002;6.930;2023-04-03T08:47:18;572.78;;;189.85;;
51913;SDS011;37940;53.002;6.930;2023-04-03T08:50:06;575.55;;;191.35;;
51913;SDS011;37940;53.002;6.930;2023-04-03T08:52:50;578.60;;;198.35;;
51913;SDS011;37940;53.002;6.930;2023-04-03T08:57:47;577.20;;;193.93;;
51913;SDS011;37940;53.002;6.930;2023-04-03T09:05:15;577.53;;;193.73;;
51913;SDS011;37940;53.002;6.930;2023-04-03T09:07:44;577.55;;;192.27;;
51913;SDS011;37940;53.002;6.930;2023-04-03T09:10:15;577.40;;;191.90;;
51913;SDS011;37940;53.002;6.930;2023-04-03T09:13:05;583.50;;;201.38;;
51913;SDS011;37940;53.002;6.930;2023-04-03T09:15:59;585.33;;;203.88;;
51913;SDS011;37940;53.002;6.930;2023-04-03T09:18:35;587.03;;;206.93;;
51913;SDS011;37940;53.002;6.930;2023-04-03T09:23:56;579.65;;;193.80;;
51913;SDS011;37940;53.002;6.930;2023-04-03T09:26:26;580.92;;;194.18;;
51913;SDS011;37940;53.002;6.930;2023-04-03T09:28:59;587.10;;;209.18;;
51913;SDS011;37940;53.002;6.930;2023-04-03T09:31:31;594.58;;;218.40;;
51913;SDS011;37940;53.002;6.930;2023-04-03T09:34:02;597.67;;;221.38;;
51913;SDS011;37940;53.002;6.930;2023-04-03T09:36:42;597.67;;;220.90;;
51913;SDS011;37940;53.002;6.930;2023-04-03T09:39:11;598.28;;;220.15;;
51913;SDS011;37940;53.002;6.930;2023-04-03T09:41:43;600.15;;;222.45;;
51913;SDS011;37940;53.002;6.930;2023-04-03T09:44:32;598.53;;;220.20;;
51913;SDS011;37940;53.002;6.930;2023-04-03T09:49:24;600.55;;;221.82;;
51913;SDS011;37940;53.002;6.930;2023-04-03T09:51:50;601.15;;;220.02;;
51913;SDS011;37940;53.002;6.930;2023-04-03T09:54:38;593.75;;;207.85;;
51913;SDS011;37940;53.002;6.930;2023-04-03T09:57:10;597.53;;;209.55;;
51913;SDS011;37940;53.002;6.930;2023-04-03T10:04:56;597.50;;;207.90;;
51913;SDS011;37940;53.002;6.930;2023-04-03T10:07:26;599.35;;;211.32;;
51913;SDS011;37940;53.002;6.930;2023-04-03T10:09:57;601.33;;;214.38;;
51913;SDS011;37940;53.002;6.930;2023-04-03T10:12:25;616.97;;;236.27;;
51913;SDS011;37940;53.002;6.930;2023-04-03T10:28:25;613.08;;;226.38;;
51913;SDS011;37940;53.002;6.930;2023-04-03T10:36:32;611.53;;;221.93;;
51913;SDS011;37940;53.002;6.930;2023-04-03T10:56:07;618.97;;;230.38;;
51913;SDS011;37940;53.002;6.930;2023-04-03T10:59:16;618.05;;;225.88;;
51913;SDS011;37940;53.002;6.930;2023-04-03T11:01:51;622.30;;;230.68;;
51913;SDS011;37940;53.002;6.930;2023-04-03T11:04:22;623.42;;;232.95;;
51913;SDS011;37940;53.002;6.930;2023-04-03T11:10:03;625.13;;;234.35;;
51913;SDS011;37940;53.002;6.930;2023-04-03T11:15:17;621.13;;;229.63;;
51913;SDS011;37940;53.002;6.930;2023-04-03T11:17:58;622.70;;;231.10;;
51913;SDS011;37940;53.002;6.930;2023-04-03T11:20:41;623.72;;;231.70;;
51913;SDS011;37940;53.002;6.930;2023-04-03T11:23:31;625.72;;;236.52;;
51913;SDS011;37940;53.002;6.930;2023-04-03T11:26:07;626.22;;;235.27;;
51913;SDS011;37940;53.002;6.930;2023-04-03T11:28:37;622.28;;;227.13;;
51913;SDS011;37940;53.002;6.930;2023-04-03T11:33:56;623.60;;;229.85;;
51913;SDS011;37940;53.002;6.930;2023-04-03T11:36:31;630.55;;;239.65;;
51913;SDS011;37940;53.002;6.930;2023-04-03T11:39:10;631.88;;;243.50;;
51913;SDS011;37940;53.002;6.930;2023-04-03T11:41:53;629.08;;;240.95;;
51913;SDS011;37940;53.002;6.930;2023-04-03T11:44:28;632.55;;;244.15;;
51913;SDS011;37940;53.002;6.930;2023-04-03T11:46:58;636.05;;;250.88;;
51913;SDS011;37940;53.002;6.930;2023-04-03T12:24:26;663.60;;;274.33;;
51913;SDS011;37940;53.002;6.930;2023-04-03T12:29:33;666.28;;;276.80;;
51913;SDS011;37940;53.002;6.930;2023-04-03T12:35:23;659.90;;;271.67;;
51913;SDS011;37940;53.002;6.930;2023-04-03T12:46:38;654.72;;;265.48;;
51913;SDS011;37940;53.002;6.930;2023-04-03T12:52:41;664.10;;;276.02;;
51913;SDS011;37940;53.002;6.930;2023-04-03T12:54:59;663.28;;;273.17;;
51913;SDS011;37940;53.002;6.930;2023-04-03T12:57:29;653.45;;;265.20;;
51913;SDS011;37940;53.002;6.930;2023-04-03T12:59:58;663.78;;;274.80;;
51913;SDS011;37940;53.002;6.930;2023-04-03T13:02:26;659.22;;;270.15;;
51913;SDS011;37940;53.002;6.930;2023-04-03T13:04:55;659.28;;;270.00;;
51913;SDS011;37940;53.002;6.930;2023-04-03T13:07:24;651.95;;;263.23;;
51913;SDS011;37940;53.002;6.930;2023-04-03T13:12:50;651.83;;;260.83;;
51913;SDS011;37940;53.002;6.930;2023-04-03T13:15:42;652.97;;;263.00;;
51913;SDS011;37940;53.002;6.930;2023-04-03T13:18:28;651.63;;;259.90;;
51913;SDS011;37940;53.002;6.930;2023-04-03T13:20:58;651.72;;;261.48;;
51913;SDS011;37940;53.002;6.930;2023-04-03T13:23:47;656.33;;;266.45;;
51913;SDS011;37940;53.002;6.930;2023-04-03T13:26:17;656.90;;;266.20;;
51913;SDS011;37940;53.002;6.930;2023-04-03T13:28:45;659.53;;;270.30;;
51913;SDS011;37940;53.002;6.930;2023-04-03T13:33:55;661.05;;;272.50;;
51913;SDS011;37940;53.002;6.930;2023-04-03T13:36:32;652.53;;;261.05;;
51913;SDS011;37940;53.002;6.930;2023-04-03T13:39:03;653.80;;;264.42;;
51913;SDS011;37940;53.002;6.930;2023-04-03T13:41:37;656.30;;;266.38;;
51913;SDS011;37940;53.002;6.930;2023-04-03T13:46:48;652.15;;;259.30;;
51913;SDS011;37940;53.002;6.930;2023-04-03T13:51:53;661.33;;;268.95;;
51913;SDS011;37940;53.002;6.930;2023-04-03T13:54:20;659.38;;;267.83;;
51913;SDS011;37940;53.002;6.930;2023-04-03T13:56:52;662.92;;;271.05;;
51913;SDS011;37940;53.002;6.930;2023-04-03T13:59:24;668.08;;;276.65;;
51913;SDS011;37940;53.002;6.930;2023-04-03T14:02:09;666.40;;;274.08;;
51913;SDS011;37940;53.002;6.930;2023-04-03T14:07:05;657.25;;;265.23;;
51913;SDS011;37940;53.002;6.930;2023-04-03T14:09:31;659.47;;;268.27;;
51913;SDS011;37940;53.002;6.930;2023-04-03T14:11:59;661.50;;;271.08;;
51913;SDS011;37940;53.002;6.930;2023-04-03T14:14:30;666.42;;;275.60;;
51913;SDS011;37940;53.002;6.930;2023-04-03T14:16:59;660.65;;;269.30;;
51913;SDS011;37940;53.002;6.930;2023-04-03T14:19:30;665.42;;;273.42;;
51913;SDS011;37940;53.002;6.930;2023-04-03T14:21:58;662.15;;;269.77;;
51913;SDS011;37940;53.002;6.930;2023-04-03T14:24:25;663.35;;;270.60;;
51913;SDS011;37940;53.002;6.930;2023-04-03T14:26:53;666.80;;;274.55;;
51913;SDS011;37940;53.002;6.930;2023-04-03T14:29:20;663.42;;;272.67;;
51913;SDS011;37940;53.002;6.930;2023-04-03T14:31:46;662.08;;;270.02;;
51913;SDS011;37940;53.002;6.930;2023-04-03T14:34:13;657.47;;;266.67;;
51913;SDS011;37940;53.002;6.930;2023-04-03T14:36:43;661.90;;;269.77;;
51913;SDS011;37940;53.002;6.930;2023-04-03T14:39:11;666.10;;;275.30;;
51913;SDS011;37940;53.002;6.930;2023-04-03T14:41:46;662.33;;;270.10;;
51913;SDS011;37940;53.002;6.930;2023-04-03T14:44:12;664.30;;;273.77;;
51913;SDS011;37940;53.002;6.930;2023-04-03T14:46:39;663.53;;;271.45;;
51913;SDS011;37940;53.002;6.930;2023-04-03T14:49:12;665.50;;;273.15;;
51913;SDS011;37940;53.002;6.930;2023-04-03T14:51:41;664.80;;;274.30;;
51913;SDS011;37940;53.002;6.930;2023-04-03T14:54:11;667.75;;;277.90;;
51913;SDS011;37940;53.002;6.930;2023-04-03T14:56:39;672.70;;;280.08;;
51913;SDS011;37940;53.002;6.930;2023-04-03T14:59:08;664.63;;;273.75;;
51913;SDS011;37940;53.002;6.930;2023-04-03T15:01:36;658.53;;;268.50;;
51913;SDS011;37940;53.002;6.930;2023-04-03T15:04:08;654.92;;;264.10;;
51913;SDS011;37940;53.002;6.930;2023-04-03T15:06:39;653.78;;;264.55;;
51913;SDS011;37940;53.002;6.930;2023-04-03T15:09:08;651.10;;;259.80;;
51913;SDS011;37940;53.002;6.930;2023-04-03T15:11:44;649.75;;;257.77;;
51913;SDS011;37940;53.002;6.930;2023-04-03T15:14:10;649.42;;;257.30;;
51913;SDS011;37940;53.002;6.930;2023-04-03T15:16:36;650.67;;;259.63;;
51913;SDS011;37940;53.002;6.930;2023-04-03T15:19:02;651.00;;;259.25;;
51913;SDS011;37940;53.002;6.930;2023-04-03T15:21:28;648.78;;;256.40;;
51913;SDS011;37940;53.002;6.930;2023-04-03T15:23:53;645.97;;;253.13;;
51913;SDS011;37940;53.002;6.930;2023-04-03T15:26:19;645.78;;;252.20;;
51913;SDS011;37940;53.002;6.930;2023-04-03T15:28:45;637.80;;;243.35;;
51913;SDS011;37940;53.002;6.930;2023-04-03T15:31:11;634.38;;;239.00;;
51913;SDS011;37940;53.002;6.930;2023-04-03T15:33:37;629.15;;;230.93;;
51913;SDS011;37940;53.002;6.930;2023-04-03T15:36:04;632.42;;;235.60;;
51913;SDS011;37940;53.002;6.930;2023-04-03T15:38:30;629.38;;;233.57;;
51913;SDS011;37940;53.002;6.930;2023-04-03T15:40:56;639.90;;;245.77;;
51913;SDS011;37940;53.002;6.930;2023-04-03T15:43:22;644.85;;;252.27;;
51913;SDS011;37940;53.002;6.930;2023-04-03T15:45:48;647.78;;;256.35;;
51913;SDS011;37940;53.002;6.930;2023-04-03T15:48:15;643.47;;;251.80;;
51913;SDS011;37940;53.002;6.930;2023-04-03T15:50:42;637.42;;;243.13;;
51913;SDS011;37940;53.002;6.930;2023-04-03T15:53:08;634.80;;;241.57;;
51913;SDS011;37940;53.002;6.930;2023-04-03T15:55:34;642.10;;;252.07;;
51913;SDS011;37940;53.002;6.930;2023-04-03T15:58:04;639.95;;;247.35;;
51913;SDS011;37940;53.002;6.930;2023-04-03T16:00:30;641.35;;;250.75;;
51913;SDS011;37940;53.002;6.930;2023-04-03T16:02:58;635.45;;;243.48;;
51913;SDS011;37940;53.002;6.930;2023-04-03T16:05:29;632.28;;;239.73;;
51913;SDS011;37940;53.002;6.930;2023-04-03T16:07:55;631.28;;;237.02;;
51913;SDS011;37940;53.002;6.930;2023-04-03T16:10:24;632.58;;;237.05;;
51913;SDS011;37940;53.002;6.930;2023-04-03T16:12:50;628.15;;;235.88;;
51913;SDS011;37940;53.002;6.930;2023-04-03T16:15:15;623.90;;;230.15;;
51913;SDS011;37940;53.002;6.930;2023-04-03T16:17:42;631.10;;;241.60;;
51913;SDS011;37940;53.002;6.930;2023-04-03T16:20:08;632.72;;;242.43;;